WetterOnline ( https://www.wetteronline.ch )

Wetter aktuell Waldmünchen

Aktuelles Wetter: Waldmünchen (499m)

6-stündlich | Neueste Meldungen
Ortszeit Temperatur Wetter
Sa, 24.08. 8:00 17.0° C leicht bewölkt
Sa, 24.08. 2:00 18.4° C bedeckt
Fr, 23.08. 20:00 20.9° C leicht bewölkt
Fr, 23.08. 14:00 21.7° C leicht bewölkt
Fr, 23.08. 8:00 13.1° C wolkenlos
Fr, 23.08. 2:00 10.6° C fast wolkenlos
Do, 22.08. 20:00 17.3° C wolkenlos
Do, 22.08. 14:00 19.9° C leicht bewölkt
Ortszeit Temperatur Wetter
Sa, 24.08. 11:30 21.7° C bewölkt
Sa, 24.08. 11:20 21.7° C bewölkt
Sa, 24.08. 11:10 21.5° C wolkig
Sa, 24.08. 11:00 21.4° C wolkig
Sa, 24.08. 10:50 21.4° C wolkig
Sa, 24.08. 10:40 21.1° C wolkig
Sa, 24.08. 10:30 20.6° C leicht bewölkt
Sa, 24.08. 10:00 20.8° C wolkig
Sa, 24.08. 9:30 20.0° C wolkig
Sa, 24.08. 9:00 18.7° C leicht bewölkt
Sa, 24.08. 8:30 17.8° C leicht bewölkt
Ortszeit Relative Feuchte Sichtweite
Sa, 24.08. 8:00 77% 19 km
Sa, 24.08. 2:00 67% 29 km
Fr, 23.08. 20:00 61% 29 km
Fr, 23.08. 14:00 57% 28 km
Fr, 23.08. 8:00 87% 9 km
Fr, 23.08. 2:00 99% 7 km
Do, 22.08. 20:00 72% 35 km
Do, 22.08. 14:00 56% 20 km
Ortszeit Relative Feuchte Sichtweite
Sa, 24.08. 11:30 69% 14 km
Sa, 24.08. 11:20 69% -
Sa, 24.08. 11:10 70% -
Sa, 24.08. 11:00 71% 19 km
Sa, 24.08. 10:50 71% -
Sa, 24.08. 10:40 71% -
Sa, 24.08. 10:30 70% 15 km
Sa, 24.08. 10:00 69% 17 km
Sa, 24.08. 9:30 72% 14 km
Sa, 24.08. 9:00 75% 19 km
Sa, 24.08. 8:30 76% 12 km
Ortszeit Niederschlagsmenge Niederschlagsart
Sa, 24.08. 8:00 0.0 l/m2 in 12 Std. -
Sa, 24.08. 2:00 0.1 l/m2 in 6 Std. -
Fr, 23.08. 20:00 0.0 l/m2 in 12 Std. -
Fr, 23.08. 14:00 0.0 l/m2 in 6 Std. -
Fr, 23.08. 8:00 0.1 l/m2 in 12 Std. -
Fr, 23.08. 2:00 0.1 l/m2 in 6 Std. -
Do, 22.08. 20:00 0.0 l/m2 in 12 Std. -
Do, 22.08. 14:00 0.0 l/m2 in 6 Std. -
Ortszeit Niederschlagsmenge Niederschlagsart
Sa, 24.08. 11:30 0.0 l/m2 in 1 Std. -
Sa, 24.08. 11:20 keine Meldung -
Sa, 24.08. 11:10 keine Meldung -
Sa, 24.08. 11:00 0.0 l/m2 in 1 Std. -
Sa, 24.08. 10:50 keine Meldung -
Sa, 24.08. 10:40 keine Meldung -
Sa, 24.08. 10:30 0.0 l/m2 in 1 Std. -
Sa, 24.08. 10:00 0.0 l/m2 in 1 Std. -
Sa, 24.08. 9:30 0.0 l/m2 in 1 Std. -
Sa, 24.08. 9:00 0.0 l/m2 in 1 Std. -
Sa, 24.08. 8:30 0.0 l/m2 in 1 Std. -
Ortszeit Stärke Spitze Richtung
km/h Bft. km/h Grad Sektor
Sa, 24.08. 8:00 28 4 37 30° NO
Sa, 24.08. 2:00 7 2 25 320° NW
Fr, 23.08. 20:00 11 2 36 40° NO
Fr, 23.08. 14:00 20 4 33 50° NO
Fr, 23.08. 8:00 0 0 7 - -
Fr, 23.08. 2:00 4 1 11 80° O
Do, 22.08. 20:00 7 2 36 30° NO
Do, 22.08. 14:00 22 4 36 70° O
Ortszeit Stärke Spitze Richtung
km/h Bft. km/h Grad Sektor
Sa, 24.08. 11:30 20 4 30 40° NO
Sa, 24.08. 11:20 20 4 - 40° NO
Sa, 24.08. 11:10 19 3 - 40° NO
Sa, 24.08. 11:00 14 3 29 40° NO
Sa, 24.08. 10:50 14 3 - 40° NO
Sa, 24.08. 10:40 18 3 - 40° NO
Sa, 24.08. 10:30 15 3 20 30° NO
Sa, 24.08. 10:00 9 2 31 50° NO
Sa, 24.08. 9:30 14 3 32 20° N
Sa, 24.08. 9:00 22 4 36 20° N
Sa, 24.08. 8:30 24 4 35 30° NO
Ortszeit Untergrenze Bedeckung Gattung
total tief tief mittel hoch
Sa, 24.08. 8:00 7500 m 3/8 0/8 - - -
Sa, 24.08. 2:00 1380 m 8/8 8/8 - - -
Fr, 23.08. 20:00 9000 m 5/8 0/8 - - -
Fr, 23.08. 14:00 1170 m 4/8 4/8 - - -
Fr, 23.08. 8:00 - 0/8 0/8 - - -
Fr, 23.08. 2:00 1170 m 1/8 1/8 - - -
Do, 22.08. 20:00 - 0/8 0/8 - - -
Do, 22.08. 14:00 1110 m 3/8 3/8 - - -
Ortszeit Bedeckungsgrad in Achtel und Wolkenuntergrenze
Sa, 24.08. 11:30 5(5700m) 8(7200m)
Sa, 24.08. 11:20 5(5700m) 8(7200m)
Sa, 24.08. 11:10 2(5700m) 8(7200m)
Sa, 24.08. 11:00 3(6000m) 7(7500m) 8(8400m)
Sa, 24.08. 10:50 3(6000m) 7(7500m)
Sa, 24.08. 10:40 5(6000m) 5(7800m) 6(8700m)
Sa, 24.08. 10:30 1(6900m) 4(8700m) 5(8700m)
Sa, 24.08. 10:00 7(5700m) 7(7200m) 6(7800m)
Sa, 24.08. 9:30 2(6000m) 8(7200m)
Sa, 24.08. 9:00 6(7800m) 7(9000m) 7(10500m)
Sa, 24.08. 8:30 6(7500m) 6(10500m)
Ortszeit Luftdruck NN (hPa) Tendenz (hPa in 3 Std.)
Sa, 24.08. 8:00 1021 - 0,8
Sa, 24.08. 2:00 1022 - 1,1
Fr, 23.08. 20:00 1023 - 0,6
Fr, 23.08. 14:00 1024 - 1,0
Fr, 23.08. 8:00 1027 + 0,1
Fr, 23.08. 2:00 1027 - 0,2
Do, 22.08. 20:00 1025 + 0,2
Do, 22.08. 14:00 1025 - 0,6
Ortszeit Luftdruck NN (hPa) Tendenz (hPa in 3 Std.)
Sa, 24.08. 11:30 1020 + 0,1
Sa, 24.08. 11:20 1020 keine Meldung
Sa, 24.08. 11:10 1020 keine Meldung
Sa, 24.08. 11:00 1020 + 0,1
Sa, 24.08. 10:50 1020 keine Meldung
Sa, 24.08. 10:40 1021 keine Meldung
Sa, 24.08. 10:30 1021 0,0
Sa, 24.08. 10:00 1021 - 0,1
Sa, 24.08. 9:30 1021 - 0,3
Sa, 24.08. 9:00 1021 - 0,5
Sa, 24.08. 8:30 1021 - 0,6
Ortszeit Schneehöhe (cm)
Sa, 24.08. 8:00 -
Sa, 24.08. 2:00 -
Fr, 23.08. 20:00 -
Fr, 23.08. 14:00 -
Fr, 23.08. 8:00 -
Fr, 23.08. 2:00 -
Do, 22.08. 20:00 -
Do, 22.08. 14:00 -
Ortszeit Schneehöhe (cm)
Sa, 24.08. 11:30 -
Sa, 24.08. 11:20 -
Sa, 24.08. 11:10 -
Sa, 24.08. 11:00 -
Sa, 24.08. 10:50 -
Sa, 24.08. 10:40 -
Sa, 24.08. 10:30 -
Sa, 24.08. 10:00 -
Sa, 24.08. 9:30 -
Sa, 24.08. 9:00 -
Sa, 24.08. 8:30 -
Link zu dieser Seite / Seite empfehlen

Das Wetter in ...